createdAt,value
2022-12-31T00:02:07.537Z,100639.66
2022-12-31T00:04:35.635Z,100654.88
2022-12-31T00:07:03.794Z,100650.56
2022-12-31T00:09:31.876Z,100653.25
2022-12-31T00:12:00.033Z,100652.22
2022-12-31T00:14:28.074Z,100669.06
2022-12-31T00:16:57.638Z,100665.84
2022-12-31T00:19:25.743Z,100659.69
2022-12-31T00:21:53.811Z,100666.63
2022-12-31T00:24:22.016Z,100673.84
2022-12-31T00:26:50.081Z,100674.66
2022-12-31T00:29:18.197Z,100658.59
2022-12-31T00:31:46.397Z,100670.38
2022-12-31T00:34:15.807Z,100663.97
2022-12-31T00:36:46.230Z,100667.97
2022-12-31T00:39:14.504Z,100681.34
2022-12-31T00:41:44.141Z,100692.59
2022-12-31T00:44:13.384Z,100688.81
2022-12-31T00:49:08.398Z,100676.25
2022-12-31T00:51:37.884Z,100685.13
2022-12-31T00:54:06.033Z,100698.19
2022-12-31T00:56:34.182Z,100691.28
2022-12-31T00:59:02.324Z,100687.25
2022-12-31T01:01:32.243Z,100679.25
2022-12-31T01:04:06.932Z,100689.66
2022-12-31T01:06:35.263Z,100693.94
2022-12-31T01:09:05.381Z,100688.59
2022-12-31T01:11:33.908Z,100687.81
2022-12-31T01:14:04.097Z,100704.13
2022-12-31T01:16:34.403Z,100698.78
2022-12-31T01:19:04.832Z,100698.25
2022-12-31T01:21:33.771Z,100693.97
2022-12-31T01:24:01.928Z,100700.13
2022-12-31T01:26:31.476Z,100692.91
2022-12-31T01:29:00.355Z,100677.38
2022-12-31T01:31:28.764Z,100690.16
2022-12-31T01:33:56.950Z,100687.50
2022-12-31T01:36:26.999Z,100692.56
2022-12-31T01:38:55.958Z,100683.19
2022-12-31T01:41:25.419Z,100682.66
2022-12-31T01:43:57.544Z,100679.44
2022-12-31T01:46:32.261Z,100675.94
2022-12-31T01:49:03.155Z,100682.06
2022-12-31T01:51:33.954Z,100679.97
2022-12-31T01:54:04.438Z,100689.88
2022-12-31T01:56:32.552Z,100691.22
2022-12-31T01:59:02.380Z,100692.00
2022-12-31T02:01:34.069Z,100692.53
2022-12-31T02:04:08.057Z,100701.06
2022-12-31T02:06:41.412Z,100692.75
2022-12-31T02:09:10.253Z,100698.09
2022-12-31T02:11:38.281Z,100695.41
2022-12-31T02:14:10.896Z,100692.72
2022-12-31T02:16:46.131Z,100686.34
2022-12-31T02:19:47.576Z,100683.66
2022-12-31T02:22:29.794Z,100691.09
2022-12-31T02:25:25.496Z,100687.34
2022-12-31T02:28:04.300Z,100687.88
2022-12-31T02:30:34.552Z,100679.84
2022-12-31T02:33:14.360Z,100679.56
2022-12-31T02:35:50.760Z,100677.19
2022-12-31T02:38:24.151Z,100677.72
2022-12-31T02:40:54.457Z,100675.59
2022-12-31T02:43:22.456Z,100678.75
2022-12-31T02:45:59.864Z,100684.06
2022-12-31T02:48:41.805Z,100681.13
2022-12-31T02:51:24.146Z,100691.81
2022-12-31T02:54:08.054Z,100685.94
2022-12-31T02:56:43.421Z,100692.59
2022-12-31T02:59:38.137Z,100685.72
2022-12-31T03:02:19.453Z,100701.53
2022-12-31T03:04:52.559Z,100692.72
2022-12-31T03:07:23.263Z,100699.44
2022-12-31T03:09:51.877Z,100715.72
2022-12-31T03:12:39.758Z,100703.63
2022-12-31T03:15:20.053Z,100707.31
2022-12-31T03:17:58.450Z,100710.50
2022-12-31T03:20:47.804Z,100713.19
2022-12-31T03:23:19.131Z,100712.94
2022-12-31T03:25:46.259Z,100719.38
2022-12-31T03:28:16.520Z,100717.50
2022-12-31T03:30:46.993Z,100717.25
2022-12-31T03:33:17.158Z,100721.78
2022-12-31T03:35:48.269Z,100717.72
2022-12-31T03:38:16.946Z,100718.00
2022-12-31T03:40:47.176Z,100716.69
2022-12-31T03:43:15.434Z,100729.56
2022-12-31T03:45:43.696Z,100728.75
2022-12-31T03:48:12.177Z,100727.63
2022-12-31T03:50:41.600Z,100735.59
2022-12-31T03:53:09.815Z,100723.81
2022-12-31T03:55:37.999Z,100731.88
2022-12-31T03:58:06.480Z,100728.13
2022-12-31T04:00:34.644Z,100718.72
2022-12-31T04:03:02.733Z,100720.31
2022-12-31T04:05:31.400Z,100707.44
2022-12-31T04:08:00.828Z,100709.84
2022-12-31T04:10:28.904Z,100719.81
2022-12-31T04:12:56.898Z,100723.09
2022-12-31T04:15:25.014Z,100716.41
2022-12-31T04:17:52.981Z,100726.22
2022-12-31T04:20:21.069Z,100735.00
2022-12-31T04:22:49.197Z,100727.75
2022-12-31T04:25:18.944Z,100741.84
2022-12-31T04:27:47.216Z,100733.31
2022-12-31T04:30:16.275Z,100725.34
2022-12-31T04:32:44.273Z,100719.81
2022-12-31T04:35:12.714Z,100727.53
2022-12-31T04:37:40.971Z,100726.19
2022-12-31T04:40:11.212Z,100728.63
2022-12-31T04:42:40.709Z,100724.06
2022-12-31T04:45:09.868Z,100732.91
2022-12-31T04:47:37.885Z,100733.75
2022-12-31T04:50:07.391Z,100740.19
2022-12-31T04:52:40.452Z,100741.50
2022-12-31T04:55:11.064Z,100730.06
2022-12-31T04:57:40.663Z,100735.44
2022-12-31T05:00:10.126Z,100734.94
2022-12-31T05:02:38.377Z,100741.34
2022-12-31T05:05:07.354Z,100739.75
2022-12-31T05:07:35.299Z,100738.72
2022-12-31T05:10:03.409Z,100743.25
2022-12-31T05:12:31.443Z,100746.22
2022-12-31T05:15:00.909Z,100748.09
2022-12-31T05:17:28.868Z,100755.34
2022-12-31T05:19:56.920Z,100767.16
2022-12-31T05:22:30.816Z,100765.31
2022-12-31T05:24:59.819Z,100760.75
2022-12-31T05:27:31.253Z,100775.22
2022-12-31T05:30:01.495Z,100774.63
2022-12-31T05:32:29.544Z,100775.25
2022-12-31T05:34:58.169Z,100775.97
2022-12-31T05:37:26.258Z,100779.16
2022-12-31T05:39:54.451Z,100777.84
2022-12-31T05:42:22.776Z,100784.53
2022-12-31T05:44:51.223Z,100785.34
2022-12-31T05:47:20.861Z,100792.06
2022-12-31T05:49:49.140Z,100793.38
2022-12-31T05:52:17.499Z,100790.72
2022-12-31T05:54:45.679Z,100803.00
2022-12-31T05:57:13.900Z,100798.97
2022-12-31T05:59:42.210Z,100798.97
2022-12-31T06:02:10.205Z,100799.31
2022-12-31T06:04:39.727Z,100805.19
2022-12-31T06:07:07.762Z,100813.97
2022-12-31T06:09:35.801Z,100805.41
2022-12-31T06:12:03.967Z,100808.63
2022-12-31T06:14:32.134Z,100812.34
2022-12-31T06:17:00.252Z,100809.94
2022-12-31T06:19:28.267Z,100814.19
2022-12-31T06:21:57.731Z,100808.88
2022-12-31T06:24:25.720Z,100810.22
2022-12-31T06:26:53.862Z,100803.28
2022-12-31T06:29:21.938Z,100819.88
2022-12-31T06:31:50.092Z,100823.38
2022-12-31T06:34:18.410Z,100821.28
2022-12-31T06:36:46.578Z,100830.91
2022-12-31T06:39:16.133Z,100832.00
2022-12-31T06:41:44.163Z,100830.38
2022-12-31T06:44:12.310Z,100833.66
2022-12-31T06:46:40.334Z,100836.63
2022-12-31T06:49:08.444Z,100844.13
2022-12-31T06:51:36.426Z,100852.19
2022-12-31T06:54:04.528Z,100843.91
2022-12-31T06:56:35.156Z,100848.75
2022-12-31T06:59:04.990Z,100854.91
2022-12-31T07:01:50.302Z,100852.50
2022-12-31T07:04:51.315Z,100845.28
2022-12-31T07:07:26.942Z,100850.88
2022-12-31T07:10:02.582Z,100850.34
2022-12-31T07:12:48.238Z,100854.66
2022-12-31T07:15:21.144Z,100856.78
2022-12-31T07:17:55.972Z,100861.59
2022-12-31T07:20:25.980Z,100858.66
2022-12-31T07:22:57.822Z,100865.63
2022-12-31T07:25:26.528Z,100873.94
2022-12-31T07:28:07.285Z,100865.09
2022-12-31T07:30:44.051Z,100871.75
2022-12-31T07:33:31.240Z,100873.34
2022-12-31T07:36:10.879Z,100874.66
2022-12-31T07:38:49.025Z,100873.84
2022-12-31T07:41:25.177Z,100885.06
2022-12-31T07:44:02.373Z,100874.06
2022-12-31T07:46:38.404Z,100872.69
2022-12-31T07:49:10.899Z,100888.53
2022-12-31T07:51:39.747Z,100881.59
2022-12-31T07:54:13.632Z,100890.66
2022-12-31T07:56:42.877Z,100892.53
2022-12-31T07:59:24.277Z,100893.88
2022-12-31T08:02:00.074Z,100883.38
2022-12-31T08:04:33.830Z,100888.47
2022-12-31T08:07:12.861Z,100892.19
2022-12-31T08:09:48.386Z,100888.47
2022-12-31T08:12:16.841Z,100888.16
2022-12-31T08:14:48.718Z,100891.59
2022-12-31T08:17:19.150Z,100890.50
2022-12-31T08:19:50.109Z,100892.06
2022-12-31T08:22:43.227Z,100898.75
2022-12-31T08:25:24.960Z,100900.03
2022-12-31T08:28:04.211Z,100901.84
2022-12-31T08:30:43.190Z,100899.66
2022-12-31T08:33:15.625Z,100902.56
2022-12-31T08:35:58.434Z,100902.25
2022-12-31T08:38:33.488Z,100910.22
2022-12-31T08:41:09.650Z,100902.66
2022-12-31T08:43:49.644Z,100912.22
2022-12-31T08:46:25.603Z,100907.06
2022-12-31T08:48:54.817Z,100908.09
2022-12-31T08:51:25.428Z,100904.56
2022-12-31T08:53:55.448Z,100902.31
2022-12-31T08:56:31.220Z,100908.16
2022-12-31T08:59:12.680Z,100898.09
2022-12-31T09:01:59.260Z,100885.91
2022-12-31T09:04:36.955Z,100892.81
2022-12-31T09:07:06.306Z,100885.03
2022-12-31T09:09:43.671Z,100883.66
2022-12-31T09:12:19.923Z,100879.03
2022-12-31T09:14:51.929Z,100881.44
2022-12-31T09:17:45.192Z,100872.19
2022-12-31T09:20:24.961Z,100869.94
2022-12-31T09:22:54.565Z,100879.19
2022-12-31T09:25:25.066Z,100873.97
2022-12-31T09:28:10.526Z,100869.75
2022-12-31T09:30:47.309Z,100864.19
2022-12-31T09:33:31.003Z,100862.44
2022-12-31T09:36:03.334Z,100854.00
2022-12-31T09:38:42.235Z,100853.66
2022-12-31T09:41:18.040Z,100842.38
2022-12-31T09:44:33.028Z,100840.00
2022-12-31T09:47:33.693Z,100841.28
2022-12-31T09:50:22.238Z,100847.31
2022-12-31T09:53:06.319Z,100833.41
2022-12-31T09:55:38.623Z,100822.75
2022-12-31T09:58:24.845Z,100816.03
2022-12-31T10:00:59.000Z,100815.91
2022-12-31T10:03:54.751Z,100813.19
2022-12-31T10:06:28.185Z,100809.28
2022-12-31T10:09:17.930Z,100811.84
2022-12-31T10:12:03.108Z,100811.63
2022-12-31T10:14:47.525Z,100807.41
2022-12-31T10:17:28.099Z,100795.78
2022-12-31T10:20:21.497Z,100790.28
2022-12-31T10:23:31.437Z,100793.66
2022-12-31T10:26:28.046Z,100796.09
2022-12-31T10:29:00.884Z,100787.47
2022-12-31T10:31:40.522Z,100787.22
2022-12-31T10:34:26.396Z,100780.13
2022-12-31T10:36:59.135Z,100784.16
2022-12-31T10:39:39.940Z,100777.16
2022-12-31T10:42:35.587Z,100779.09
2022-12-31T10:45:31.807Z,100770.69
2022-12-31T10:48:50.676Z,100766.75
2022-12-31T10:51:48.077Z,100764.06
2022-12-31T10:54:51.982Z,100769.19
2022-12-31T10:57:52.767Z,100760.75
2022-12-31T11:00:22.677Z,100765.88
2022-12-31T11:03:47.436Z,100758.09
2022-12-31T11:06:42.317Z,100754.75
2022-12-31T11:09:46.081Z,100747.09
2022-12-31T11:12:47.430Z,100742.78
2022-12-31T11:15:29.867Z,100738.00
2022-12-31T11:18:08.941Z,100738.47
2022-12-31T11:20:57.377Z,100735.78
2022-12-31T11:23:38.274Z,100731.78
2022-12-31T11:26:19.908Z,100737.19
2022-12-31T11:29:29.546Z,100729.22
2022-12-31T11:32:24.064Z,100723.00
2022-12-31T11:35:17.113Z,100721.22
2022-12-31T11:37:48.801Z,100717.22
2022-12-31T11:40:32.424Z,100718.47
2022-12-31T11:43:05.633Z,100713.41
2022-12-31T11:45:55.728Z,100713.00
2022-12-31T11:48:33.726Z,100712.81
2022-12-31T11:51:23.921Z,100709.13
2022-12-31T11:54:25.237Z,100720.31
2022-12-31T11:57:04.095Z,100711.16
2022-12-31T11:59:32.577Z,100707.63
2022-12-31T12:02:06.663Z,100712.72
2022-12-31T12:04:36.236Z,100707.91
2022-12-31T12:07:04.374Z,100708.00
2022-12-31T12:09:35.912Z,100711.72
2022-12-31T12:12:06.319Z,100710.94
2022-12-31T12:14:36.581Z,100708.53
2022-12-31T12:17:07.756Z,100707.75
2022-12-31T12:19:43.087Z,100708.03
2022-12-31T12:22:12.229Z,100697.44
2022-12-31T12:24:40.555Z,100691.56
2022-12-31T12:27:23.942Z,100707.31
2022-12-31T12:29:52.101Z,100694.69
2022-12-31T12:32:23.075Z,100704.72
2022-12-31T12:34:53.187Z,100704.88
2022-12-31T12:37:32.438Z,100701.47
2022-12-31T12:40:02.354Z,100705.91
2022-12-31T12:42:31.401Z,100708.09
2022-12-31T12:45:05.148Z,100707.75
2022-12-31T12:47:34.255Z,100714.78
2022-12-31T12:50:06.187Z,100707.88
2022-12-31T12:52:59.198Z,100711.31
2022-12-31T12:55:36.838Z,100707.03
2022-12-31T12:58:19.451Z,100710.66
2022-12-31T13:01:01.533Z,100718.13
2022-12-31T13:04:32.959Z,100713.16
2022-12-31T13:06:59.834Z,100709.91
2022-12-31T13:09:40.779Z,100713.28
2022-12-31T13:12:20.518Z,100713.34
2022-12-31T13:14:56.454Z,100714.69
2022-12-31T13:17:36.982Z,100710.03
2022-12-31T13:20:13.449Z,100712.09
2022-12-31T13:22:49.323Z,100709.75
2022-12-31T13:25:27.445Z,100712.47
2022-12-31T13:27:59.775Z,100720.78
2022-12-31T13:30:33.957Z,100721.72
2022-12-31T13:33:08.622Z,100727.25
2022-12-31T13:35:44.479Z,100726.56
2022-12-31T13:38:18.887Z,100718.72
2022-12-31T13:40:53.272Z,100721.81
2022-12-31T13:43:28.865Z,100733.78
2022-12-31T13:46:07.222Z,100734.25
2022-12-31T13:48:41.913Z,100735.06
2022-12-31T13:51:16.501Z,100743.00
2022-12-31T13:53:52.876Z,100744.53
2022-12-31T13:56:26.067Z,100747.09
2022-12-31T13:58:59.551Z,100745.19
2022-12-31T14:01:34.594Z,100751.16
2022-12-31T14:04:09.393Z,100756.72
2022-12-31T14:06:46.053Z,100755.63
2022-12-31T14:09:21.493Z,100767.25
2022-12-31T14:12:10.539Z,100762.91
2022-12-31T14:14:47.555Z,100762.69
2022-12-31T14:17:24.762Z,100767.00
2022-12-31T14:20:02.062Z,100771.78
2022-12-31T14:22:37.337Z,100773.78
2022-12-31T14:25:19.013Z,100765.50
2022-12-31T14:27:49.395Z,100769.00
2022-12-31T14:30:20.843Z,100767.28
2022-12-31T14:33:11.871Z,100771.00
2022-12-31T14:35:59.086Z,100770.13
2022-12-31T14:38:39.971Z,100769.13
2022-12-31T14:41:20.462Z,100776.56
2022-12-31T14:44:01.064Z,100773.72
2022-12-31T14:46:37.275Z,100774.41
2022-12-31T14:49:21.418Z,100771.69
2022-12-31T14:51:49.775Z,100773.25
2022-12-31T14:54:29.516Z,100774.06
2022-12-31T14:56:59.036Z,100762.56
2022-12-31T14:59:29.212Z,100769.47
2022-12-31T15:01:59.106Z,100769.22
2022-12-31T15:04:35.568Z,100772.91
2022-12-31T15:07:12.127Z,100778.38
2022-12-31T15:09:59.202Z,100776.69
2022-12-31T15:12:47.945Z,100780.38
2022-12-31T15:15:33.429Z,100778.94
2022-12-31T15:18:18.911Z,100783.94
2022-12-31T15:21:12.889Z,100780.44
2022-12-31T15:23:43.901Z,100776.50
2022-12-31T15:26:23.951Z,100781.97
2022-12-31T15:29:03.533Z,100784.41
2022-12-31T15:31:34.046Z,100785.38
2022-12-31T15:34:04.192Z,100785.88
2022-12-31T15:36:35.777Z,100785.88
2022-12-31T15:39:37.123Z,100791.66
2022-12-31T15:45:01.696Z,100788.69
2022-12-31T15:47:32.089Z,100788.56
2022-12-31T15:50:03.925Z,100789.53
2022-12-31T15:52:44.815Z,100787.63
2022-12-31T15:55:23.364Z,100796.53
2022-12-31T15:57:51.867Z,100801.31
2022-12-31T16:00:24.084Z,100799.53
2022-12-31T16:02:55.765Z,100800.34
2022-12-31T16:05:27.087Z,100793.63
2022-12-31T16:07:57.286Z,100804.47
2022-12-31T16:10:28.044Z,100805.75
2022-12-31T16:12:58.026Z,100803.19
2022-12-31T16:15:30.514Z,100809.09
2022-12-31T16:18:04.590Z,100812.25
2022-12-31T16:20:34.799Z,100814.00
2022-12-31T16:23:04.522Z,100828.19
2022-12-31T16:25:34.247Z,100831.97
2022-12-31T16:28:04.972Z,100827.06
2022-12-31T16:30:37.083Z,100827.53
2022-12-31T16:33:13.055Z,100838.16
2022-12-31T16:35:41.353Z,100840.19
2022-12-31T16:38:16.322Z,100837.63
2022-12-31T16:40:47.037Z,100843.25
2022-12-31T16:43:27.470Z,100835.59
2022-12-31T16:46:00.038Z,100839.25
2022-12-31T16:48:28.526Z,100840.84
2022-12-31T16:50:57.990Z,100845.28
2022-12-31T16:53:30.006Z,100853.69
2022-12-31T16:56:03.597Z,100853.00
2022-12-31T16:58:34.134Z,100846.81
2022-12-31T17:01:14.388Z,100853.81
2022-12-31T17:03:46.963Z,100851.06
2022-12-31T17:06:18.103Z,100861.22
2022-12-31T17:09:06.260Z,100854.84
2022-12-31T17:11:36.371Z,100859.88
2022-12-31T17:14:13.713Z,100853.19
2022-12-31T17:17:01.450Z,100862.56
2022-12-31T17:19:40.311Z,100861.59
2022-12-31T17:22:14.580Z,100869.88
2022-12-31T17:24:42.883Z,100871.06
2022-12-31T17:27:11.678Z,100880.94
2022-12-31T17:29:39.957Z,100875.75
2022-12-31T17:32:29.863Z,100881.78
2022-12-31T17:34:58.017Z,100888.81
2022-12-31T17:37:28.423Z,100888.97
2022-12-31T17:40:17.495Z,100894.50
2022-12-31T17:42:49.500Z,100893.44
2022-12-31T17:45:22.136Z,100899.88
2022-12-31T17:47:54.061Z,100896.88
2022-12-31T17:50:24.255Z,100905.13
2022-12-31T17:52:56.717Z,100899.72
2022-12-31T17:55:25.146Z,100910.66
2022-12-31T17:57:56.870Z,100910.66
2022-12-31T18:00:27.650Z,100912.22
2022-12-31T18:02:57.487Z,100920.38
2022-12-31T18:05:26.040Z,100917.50
2022-12-31T18:07:54.966Z,100924.16
2022-12-31T18:10:25.788Z,100933.28
2022-12-31T18:12:53.958Z,100935.91
2022-12-31T18:15:24.041Z,100941.13
2022-12-31T18:17:52.427Z,100936.94
2022-12-31T18:20:21.912Z,100936.97
2022-12-31T18:22:50.147Z,100933.16
2022-12-31T18:25:20.670Z,100937.16
2022-12-31T18:27:49.270Z,100937.34
2022-12-31T18:30:17.770Z,100950.84
2022-12-31T18:32:46.934Z,100950.47
2022-12-31T18:35:48.660Z,100957.06
2022-12-31T18:38:14.156Z,100962.31
2022-12-31T18:40:46.555Z,100964.13
2022-12-31T18:43:17.541Z,100955.03
2022-12-31T18:45:46.752Z,100960.38
2022-12-31T18:48:14.952Z,100957.66
2022-12-31T18:50:43.501Z,100967.19
2022-12-31T18:53:18.188Z,100961.38
2022-12-31T18:55:49.768Z,100967.16
2022-12-31T18:58:20.759Z,100962.75
2022-12-31T19:00:50.175Z,100968.59
2022-12-31T19:03:21.155Z,100958.44
2022-12-31T19:05:51.120Z,100962.53
2022-12-31T19:08:22.736Z,100953.03
2022-12-31T19:10:53.607Z,100955.38
2022-12-31T19:13:23.396Z,100957.28
2022-12-31T19:15:53.443Z,100958.25
2022-12-31T19:18:21.530Z,100960.09
2022-12-31T19:20:49.642Z,100969.47
2022-12-31T19:23:19.891Z,100967.88
2022-12-31T19:25:50.987Z,100971.22
2022-12-31T19:28:21.485Z,100969.78
2022-12-31T19:30:50.045Z,100968.31
2022-12-31T19:33:18.739Z,100971.28
2022-12-31T19:35:47.319Z,100972.44
2022-12-31T19:38:20.667Z,100972.75
2022-12-31T19:40:51.643Z,100975.78
2022-12-31T19:43:21.932Z,100963.69
2022-12-31T19:45:51.139Z,100971.44
2022-12-31T19:48:22.849Z,100968.84
2022-12-31T19:50:54.439Z,100972.94
2022-12-31T19:53:26.348Z,100972.81
2022-12-31T19:55:56.135Z,100971.34
2022-12-31T19:58:26.588Z,100981.09
2022-12-31T20:01:01.896Z,100971.81
2022-12-31T20:03:32.628Z,100975.75
2022-12-31T20:06:05.939Z,100963.56
2022-12-31T20:08:34.753Z,100966.88
2022-12-31T20:11:12.734Z,100969.16
2022-12-31T20:13:41.784Z,100964.88
2022-12-31T20:16:12.346Z,100964.94
2022-12-31T20:18:41.676Z,100966.13
2022-12-31T20:21:11.857Z,100967.78
2022-12-31T20:23:39.947Z,100972.13
2022-12-31T20:26:09.520Z,100977.78
2022-12-31T20:28:38.335Z,100976.97
2022-12-31T20:31:08.017Z,100977.53
2022-12-31T20:33:36.332Z,100981.31
2022-12-31T20:36:04.892Z,100975.44
2022-12-31T20:38:33.042Z,100980.38
2022-12-31T20:41:04.720Z,100987.16
2022-12-31T20:43:34.268Z,100979.91
2022-12-31T20:46:12.673Z,100985.31
2022-12-31T20:48:43.099Z,100978.38
2022-12-31T20:51:11.477Z,100978.41
2022-12-31T20:53:39.755Z,100978.19
2022-12-31T20:56:08.786Z,100997.81
2022-12-31T20:58:38.381Z,100997.88
2022-12-31T21:01:08.767Z,101008.63
2022-12-31T21:04:04.468Z,101004.31
2022-12-31T21:06:26.085Z,101016.44
2022-12-31T21:08:55.318Z,101007.22
2022-12-31T21:11:40.929Z,101016.38
2022-12-31T21:14:10.770Z,101020.56
2022-12-31T21:16:38.815Z,101022.69
2022-12-31T21:19:07.207Z,101015.22
2022-12-31T21:21:35.643Z,101018.50
2022-12-31T21:24:03.798Z,101023.13
2022-12-31T21:26:32.169Z,101026.44
2022-12-31T21:29:00.608Z,101025.44
2022-12-31T21:31:30.102Z,101024.94
2022-12-31T21:33:58.227Z,101022.81
2022-12-31T21:36:26.307Z,101020.41
2022-12-31T21:38:54.426Z,101026.59
2022-12-31T21:41:39.960Z,101027.34
2022-12-31T21:44:08.084Z,101024.63
2022-12-31T21:46:37.672Z,101025.19
2022-12-31T21:49:05.907Z,101020.94
2022-12-31T21:51:53.909Z,101021.22
2022-12-31T21:54:36.034Z,101020.72
2022-12-31T21:57:04.910Z,101022.06
2022-12-31T22:00:09.140Z,101019.63
2022-12-31T22:02:59.348Z,101013.16
2022-12-31T22:05:29.366Z,101014.22
2022-12-31T22:07:57.587Z,101006.44
2022-12-31T22:10:25.855Z,101022.31
2022-12-31T22:12:54.078Z,101015.03
2022-12-31T22:15:22.418Z,101015.00
2022-12-31T22:17:51.994Z,101014.75
2022-12-31T22:20:29.341Z,101018.00
2022-12-31T22:22:57.518Z,101020.44
2022-12-31T22:25:25.587Z,101022.84
2022-12-31T22:28:27.721Z,101021.47
2022-12-31T22:30:42.504Z,101018.19
2022-12-31T22:33:11.974Z,101018.50
2022-12-31T22:35:40.159Z,101020.16
2022-12-31T22:38:12.119Z,101016.44
2022-12-31T22:40:40.602Z,101020.75
2022-12-31T22:43:09.008Z,101019.66
2022-12-31T22:45:37.924Z,101018.88
2022-12-31T22:48:06.604Z,101021.84
2022-12-31T22:50:36.151Z,101017.59
2022-12-31T22:53:04.260Z,101018.13
2022-12-31T22:55:32.744Z,101014.38
2022-12-31T22:58:00.701Z,101023.50
2022-12-31T23:00:40.307Z,101028.38
2022-12-31T23:03:09.143Z,101028.91
2022-12-31T23:05:38.735Z,101020.06
2022-12-31T23:08:16.978Z,101025.44
2022-12-31T23:11:00.233Z,101028.91
2022-12-31T23:13:50.669Z,101027.31
2022-12-31T23:16:37.608Z,101027.03
2022-12-31T23:19:24.615Z,101023.84
2022-12-31T23:22:12.844Z,101025.44
2022-12-31T23:24:41.054Z,101025.19
2022-12-31T23:27:09.783Z,101028.91
2022-12-31T23:29:46.011Z,101027.28
2022-12-31T23:32:16.108Z,101021.38
2022-12-31T23:34:45.165Z,101016.56
2022-12-31T23:37:15.201Z,101020.31
2022-12-31T23:39:44.065Z,101021.66
2022-12-31T23:42:12.344Z,101019.78
2022-12-31T23:44:40.438Z,101015.25
2022-12-31T23:47:08.594Z,101024.06
2022-12-31T23:49:37.665Z,101017.38
2022-12-31T23:52:05.893Z,101008.53
2022-12-31T23:54:36.135Z,101007.19
2022-12-31T23:57:04.209Z,101019.00
2022-12-31T23:59:32.314Z,101022.19
